TOQ weather

Barriles Airport
Tocopilla, Antofagasta Region, Chile

Public forecast

Using degrees Celsius for public forecast. Weather courtesy of forecast.io.

METAR (pilot weather report)

Closest report is El Loa Airport, 67.9 nm (125.7 km) ESE. Retrieved 2019/05/26 10:00 UTC (50 minutes ago):

SCCF 261000Z 11014KT CAVOK 04/M10 Q1025

TAF (pilot weather forecast)

Closest forecast is El Loa Airport, 67.9 nm (125.7 km) ESE. Retrieved 2019/05/26 06:00 UTC (5 hours ago):

TAF SCCF 260430Z 2606/2706 10018KT CAVOK TN05/2606Z TX21/2618Z BECMG 2615/2616 27008KT BECMG 2617/2619 28022KT BECMG 2700/2701 25008KT BECMG 2702/2704 11016KT